Time;durP1;ratioP1;P1;durP2;ratioP2;P2;SDS_P1;SDS_P2;PMS_P1;PMS_P2;Temp;Humidity;BMP_temperature;BMP_pressure;BME280_temperature;BME280_humidity;BME280_pressure;Samples;Min_cycle;Max_cycle;Signal;HPM_P1;HPM_P2
2022/09/22 00:01:51;;;;;;;63.78;60.53;;;;;;;19.11;71.73;101036.53;5014392;28;103933;-54
2022/09/22 00:04:19;;;;;;;68.57;65.10;;;;;;;19.14;72.02;101035.06;5015691;28;102334;-54
2022/09/22 00:06:47;;;;;;;71.60;67.97;;;;;;;19.12;71.93;101038.16;5014082;28;102194;-54
2022/09/22 00:09:17;;;;;;;70.18;66.60;;;;;;;19.13;71.73;101038.97;5015754;28;102195;-54
2022/09/22 00:11:46;;;;;;;71.57;67.97;;;;;;;19.13;71.66;101041.72;5009161;28;104125;-54
2022/09/22 00:14:16;;;;;;;66.80;63.38;;;;;;;19.12;71.86;101038.16;5011855;28;102100;-53
2022/09/22 00:16:46;;;;;;;66.70;63.22;;;;;;;19.13;71.76;101038.97;5003986;28;102500;-54
2022/09/22 00:19:16;;;;;;;67.60;64.18;;;;;;;19.14;nan;101035.06;5003276;28;102258;-54
2022/09/22 00:21:45;;;;;;;74.95;71.18;;;;;;;19.11;71.73;101030.19;5014055;28;103839;-55
2022/09/22 00:24:12;;;;;;;69.70;66.07;;;;;;;19.11;71.65;101041.22;5006949;28;102537;-53
2022/09/22 00:26:40;;;;;;;71.22;67.47;;;;;;;19.11;72.01;101035.69;5014474;28;102486;-53
2022/09/22 00:29:08;;;;;;;61.17;57.97;;;;;;;19.11;71.70;101038.44;5016726;28;102347;-54
2022/09/22 00:31:36;;;;;;;67.47;64.03;;;;;;;19.10;71.88;101039.59;5004943;28;103694;-54
2022/09/22 00:34:03;;;;;;;64.00;60.65;;;;;;;19.11;71.64;101035.69;5008255;28;102013;-53
2022/09/22 00:36:30;;;;;;;64.15;60.70;;;;;;;19.11;71.75;101041.22;5013337;28;102186;-54
2022/09/22 00:38:58;;;;;;;70.07;66.43;;;;;;;19.11;71.86;101035.69;4998214;28;102285;-54
2022/09/22 00:41:27;;;;;;;65.18;61.83;;;;;;;19.10;71.91;101028.56;4999115;28;103961;-54
2022/09/22 00:44:27;;;;;;;63.88;60.58;;;;;;;19.08;72.01;101026.13;5015923;28;102253;-54
2022/09/22 00:47:00;;;;;;;63.70;60.35;;;;;;;19.09;71.66;101030.50;5010981;28;102273;-54
2022/09/22 00:49:33;;;;;;;68.25;64.55;;;;;;;19.10;71.84;101039.59;5011412;28;102506;-53
2022/09/22 00:52:00;;;;;;;69.38;65.80;;;;;;;19.09;71.89;101027.75;5003558;28;104074;-54
2022/09/22 00:54:28;;;;;;;71.43;67.75;;;;;;;19.09;71.93;101026.94;5014970;28;102405;-54
2022/09/22 00:57:04;;;;;;;63.58;60.30;;;;;;;19.08;72.08;101030.84;5014131;28;102339;-54
2022/09/22 00:59:31;;;;;;;66.28;62.80;;;;;;;19.09;71.69;101033.28;5015237;28;102741;-54
2022/09/22 01:01:58;;;;;;;68.13;64.57;;;;;;;19.09;71.66;101029.69;5013815;28;103981;-54
2022/09/22 01:04:25;;;;;;;74.18;70.28;;;;;;;19.08;71.53;101026.13;5001614;28;102314;-54
2022/09/22 01:06:54;;;;;;;60.83;57.67;;;;;;;19.09;71.90;101032.47;5010565;28;102177;-54
2022/09/22 01:09:22;;;;;;;70.97;67.30;;;;;;;19.07;72.10;101034.72;5007267;28;104601;-54
2022/09/22 01:11:50;;;;;;;70.63;66.97;;;;;;;19.07;71.69;101040.22;5013889;28;104081;-54
2022/09/22 01:14:27;;;;;;;67.03;63.57;;;;;;;19.09;71.65;101037.97;5001735;28;102451;-54
2022/09/22 01:17:04;;;;;;;60.50;57.33;;;;;;;19.08;72.09;101036.38;5014279;28;102370;-54
2022/09/22 01:19:57;;;;;;;65.10;61.78;;;;;;;19.07;72.01;101034.72;5014498;28;102454;-54
2022/09/22 01:22:41;;;;;;;67.22;63.78;;;;;;;19.07;71.91;101040.22;5012306;28;103927;-54
2022/09/22 01:25:40;;;;;;;63.60;60.33;;;;;;;19.06;71.99;101038.63;5021367;28;102394;-54
2022/09/22 01:28:30;;;;;;;64.90;61.53;;;;;;;19.06;71.87;101033.91;5009601;28;102306;-54
2022/09/22 01:31:05;;;;;;;64.13;60.88;;;;;;;19.06;71.77;101033.09;5021041;28;102220;-54
2022/09/22 01:33:41;;;;;;;68.38;64.72;;;;;;;19.07;71.61;101040.22;5010067;28;103976;-54
2022/09/22 01:36:20;;;;;;;61.78;58.55;;;;;;;19.05;71.59;101037.81;5001673;28;102186;-52
2022/09/22 01:38:57;;;;;;;67.32;63.70;;;;;;;19.06;72.01;101038.63;5004790;28;102308;-54
2022/09/22 01:41:46;;;;;;;64.53;61.20;;;;;;;19.04;71.86;101035.34;5021610;28;102521;-54
2022/09/22 01:44:19;;;;;;;64.63;61.28;;;;;;;19.05;71.97;101037.00;5021088;28;104088;-54
2022/09/22 01:46:54;;;;;;;61.65;58.45;;;;;;;19.05;71.83;101037.00;5019363;28;102573;-54
2022/09/22 01:49:23;;;;;;;66.78;63.30;;;;;;;19.05;71.92;101037.81;5021416;28;102228;-55
2022/09/22 01:51:56;;;;;;;70.00;66.35;;;;;;;19.05;71.69;101031.47;5020817;28;102300;-53
2022/09/22 01:54:27;;;;;;;65.50;62.17;;;;;;;19.04;71.68;101025.16;5004294;28;106222;-54
2022/09/22 01:57:00;;;;;;;59.22;56.17;;;;;;;19.04;71.72;101027.06;5021153;28;102411;-54
2022/09/22 01:59:29;;;;;;;64.90;61.53;;;;;;;19.04;71.69;101030.69;5020833;28;102432;-53
2022/09/22 02:02:02;;;;;;;63.63;60.38;;;;;;;19.03;71.69;101029.03;5020961;28;102261;-54
2022/09/22 02:04:34;;;;;;;65.45;62.13;;;;;;;19.04;71.82;101029.84;5020645;28;103888;-54
2022/09/22 02:07:05;;;;;;;62.42;59.22;;;;;;;19.05;71.80;101037.81;5012330;28;101963;-54
2022/09/22 02:09:35;;;;;;;63.60;60.33;;;;;;;19.04;71.85;101032.59;5012109;28;102251;-53
2022/09/22 02:12:03;;;;;;;66.32;62.97;;;;;;;19.03;71.88;101026.28;5021835;28;102574;-53
2022/09/22 02:14:30;;;;;;;61.45;58.25;;;;;;;19.03;71.96;101036.50;5013922;28;104054;-54
2022/09/22 02:16:59;;;;;;;62.65;59.38;;;;;;;19.04;71.86;101029.84;5013539;28;102008;-53
2022/09/22 02:19:31;;;;;;;64.00;60.75;;;;;;;19.04;71.86;101029.84;5000961;28;101989;-54
2022/09/22 02:21:58;;;;;;;64.35;61.03;;;;;;;19.03;72.09;101028.22;5020489;28;102782;-54
2022/09/22 02:24:26;;;;;;;63.25;59.90;;;;;;;19.02;71.97;101032.94;5020188;28;104287;-54
2022/09/22 02:26:54;;;;;;;61.65;58.47;;;;;;;19.02;71.76;101034.88;5019982;28;102295;-54
2022/09/22 02:29:21;;;;;;;65.53;62.25;;;;;;;19.02;71.73;101032.94;5019290;28;102458;-54
2022/09/22 02:31:50;;;;;;;63.72;60.45;;;;;;;19.02;71.95;101032.13;5016757;28;102342;-54
2022/09/22 02:34:18;;;;;;;64.25;60.90;;;;;;;19.01;71.65;101023.03;5016926;28;104042;-54
2022/09/22 02:36:53;;;;;;;63.58;60.35;;;;;;;19.01;71.79;101027.75;5016406;28;102009;-54
2022/09/22 02:39:28;;;;;;;61.20;58.00;;;;;;;19.00;72.07;101023.34;5015851;28;102245;-55
2022/09/22 02:42:19;;;;;;;61.15;58.00;;;;;;;18.97;71.82;101011.03;5004013;28;102701;-54
2022/09/22 02:44:53;;;;;;;60.75;57.60;;;;;;;19.00;71.99;101009.53;4991813;28;103900;-54
2022/09/22 02:47:27;;;;;;;64.57;61.17;;;;;;;19.00;71.99;101020.59;4997208;28;102024;-54
2022/09/22 02:49:56;;;;;;;63.78;60.42;;;;;;;18.99;71.87;101021.72;5003598;28;102646;-53
2022/09/22 02:52:24;;;;;;;61.63;58.45;;;;;;;18.98;71.94;101022.88;4997490;28;102341;-53
2022/09/22 02:54:52;;;;;;;58.67;55.67;;;;;;;18.99;72.06;101021.72;5004420;28;103966;-54
2022/09/22 02:57:19;;;;;;;61.10;58.00;;;;;;;18.98;71.84;101022.88;5016973;28;102410;-54
2022/09/22 02:59:45;;;;;;;57.40;54.47;;;;;;;18.98;72.14;101023.69;5016862;28;102403;-54
2022/09/22 03:02:12;;;;;;;63.60;60.30;;;;;;;18.98;72.22;101020.09;5016988;28;102228;-54
2022/09/22 03:04:39;;;;;;;63.03;59.85;;;;;;;18.97;72.09;101016.53;5014984;28;103734;-55
2022/09/22 03:07:07;;;;;;;65.90;62.53;;;;;;;18.97;72.19;101019.31;5010464;28;102135;-54
2022/09/22 03:09:35;;;;;;;65.95;62.58;;;;;;;18.96;72.49;101012.94;4996281;28;102337;-54
2022/09/22 03:12:01;;;;;;;62.60;59.33;;;;;;;18.96;72.37;101012.94;4997249;28;102471;-54
2022/09/22 03:14:28;;;;;;;60.03;56.88;;;;;;;18.95;72.40;101016.84;4996037;28;103959;-54
2022/09/22 03:16:55;;;;;;;68.93;65.32;;;;;;;18.95;72.45;101011.31;5011207;28;102336;-54
2022/09/22 03:19:21;;;;;;;59.75;56.72;;;;;;;18.94;72.54;101020.75;5014057;28;102220;-54
2022/09/22 03:21:48;;;;;;;63.60;60.35;;;;;;;18.94;72.30;101006.94;5016652;28;102405;-55
2022/09/22 03:24:16;;;;;;;62.80;59.60;;;;;;;18.94;72.51;101020.75;5009456;28;103839;-54
2022/09/22 03:26:42;;;;;;;59.88;56.85;;;;;;;18.94;72.75;101019.94;5013462;28;102075;-54
2022/09/22 03:29:09;;;;;;;62.58;59.38;;;;;;;18.93;72.43;101016.38;5013375;28;102309;-54
2022/09/22 03:31:35;;;;;;;65.05;61.75;;;;;;;18.94;72.41;101019.94;5016394;28;102347;-54
2022/09/22 03:34:02;;;;;;;57.10;54.17;;;;;;;18.94;72.77;101022.69;5004723;28;103960;-54
2022/09/22 03:36:28;;;;;;;61.42;58.30;;;;;;;18.93;72.46;101023.81;4997715;28;102394;-54
2022/09/22 03:38:55;;;;;;;56.92;54.00;;;;;;;18.93;72.45;101021.88;5016650;28;102192;-54
2022/09/22 03:41:23;;;;;;;58.90;55.90;;;;;;;18.92;72.50;101017.47;5008909;28;102917;-54
2022/09/22 03:43:49;;;;;;;55.35;52.50;;;;;;;18.93;72.69;101016.38;5014640;28;104098;-54
2022/09/22 03:46:16;;;;;;;63.53;60.30;;;;;;;18.93;72.41;101019.13;5016309;28;102675;-54
2022/09/22 03:48:42;;;;;;;57.85;54.90;;;;;;;18.92;72.67;101006.44;5001391;28;102024;-54
2022/09/22 03:51:09;;;;;;;58.22;55.13;;;;;;;18.92;72.52;101013.91;5008648;28;102367;-54
2022/09/22 03:53:35;;;;;;;59.20;56.17;;;;;;;18.93;72.61;101007.25;5013400;28;103913;-53
2022/09/22 03:56:06;;;;;;;57.92;54.95;;;;;;;18.92;72.58;101013.91;5014362;28;102156;-53
2022/09/22 03:58:36;;;;;;;61.80;58.65;;;;;;;18.92;72.58;101013.91;5004909;28;102264;-54
2022/09/22 04:01:04;;;;;;;58.72;55.70;;;;;;;18.91;72.63;101015.88;4997126;28;102185;-54
2022/09/22 04:03:31;;;;;;;61.15;58.05;;;;;;;18.91;72.53;101013.09;5009680;28;104166;-54
2022/09/22 04:05:57;;;;;;;61.25;58.15;;;;;;;18.91;72.72;101015.88;5009836;28;103081;-54
2022/09/22 04:08:24;;;;;;;57.53;54.50;;;;;;;18.91;72.87;101020.56;5012616;28;102020;-54
2022/09/22 04:10:51;;;;;;;58.15;55.13;;;;;;;18.91;72.57;101015.88;5016597;28;102640;-54
2022/09/22 04:13:18;;;;;;;59.03;56.03;;;;;;;18.91;72.77;101010.34;5013966;28;104027;-54
2022/09/22 04:15:46;;;;;;;62.15;59.00;;;;;;;18.91;72.69;101021.38;5015065;28;102376;-54
2022/09/22 04:18:13;;;;;;;60.97;57.88;;;;;;;18.91;72.63;101018.63;5012663;28;102027;-54
2022/09/22 04:20:41;;;;;;;60.70;57.67;;;;;;;18.91;72.88;101021.38;5016460;28;102878;-54
2022/09/22 04:23:08;;;;;;;60.35;57.33;;;;;;;18.91;72.51;101015.88;5003736;28;103244;-54
2022/09/22 04:25:36;;;;;;;57.08;54.15;;;;;;;18.91;72.69;101021.38;5008418;28;102721;-54
2022/09/22 04:28:02;;;;;;;65.88;62.45;;;;;;;18.91;72.62;101021.38;5008640;28;102293;-54
2022/09/22 04:30:29;;;;;;;66.53;63.13;;;;;;;18.90;72.59;101017.00;5016142;28;102154;-54
2022/09/22 04:32:58;;;;;;;68.82;65.38;;;;;;;18.90;72.73;101014.25;5014453;28;103919;-54
2022/09/22 04:35:27;;;;;;;74.38;70.68;;;;;;;18.91;72.62;101020.56;5014041;28;102294;-54
2022/09/22 04:37:54;;;;;;;67.90;64.43;;;;;;;18.90;72.33;101018.94;5005126;28;102373;-54
2022/09/22 04:40:21;;;;;;;64.32;61.03;;;;;;;18.91;72.68;101021.38;5015610;28;104670;-54
2022/09/22 04:42:48;;;;;;;67.05;63.63;;;;;;;18.91;72.58;101021.38;5014324;28;103926;-54
2022/09/22 04:45:15;;;;;;;74.47;70.63;;;;;;;18.91;72.74;101029.66;5015688;28;102276;-54
2022/09/22 04:47:43;;;;;;;74.95;71.13;;;;;;;18.92;72.58;101016.66;5014530;28;102009;-54
2022/09/22 04:50:12;;;;;;;72.45;68.82;;;;;;;18.91;72.51;101026.91;5008828;28;102642;-55
2022/09/22 04:52:38;;;;;;;69.82;66.25;;;;;;;18.91;72.69;101032.41;5003015;28;104089;-54
2022/09/22 04:55:06;;;;;;;75.05;71.20;;;;;;;18.92;72.58;101027.69;5015104;28;101980;-54
2022/09/22 04:57:32;;;;;;;78.10;74.20;;;;;;;18.92;72.82;101031.28;5012537;28;102247;-54
2022/09/22 04:59:59;;;;;;;70.32;66.80;;;;;;;18.93;72.32;101035.69;5014402;28;102398;-54
2022/09/22 05:02:25;;;;;;;68.85;65.30;;;;;;;18.92;72.32;101034.03;5012767;28;104008;-54
2022/09/22 05:04:52;;;;;;;72.07;68.40;;;;;;;18.93;72.43;101034.84;5008114;28;102378;-54
2022/09/22 05:07:22;;;;;;;70.18;66.65;;;;;;;18.93;72.71;101032.06;4997808;28;102230;-54
2022/09/22 05:09:49;;;;;;;64.63;61.35;;;;;;;18.94;72.93;101031.78;5015469;28;102201;-54
2022/09/22 05:12:15;;;;;;;70.10;66.57;;;;;;;18.94;73.24;101030.97;5013982;28;104972;-53
2022/09/22 05:14:42;;;;;;;79.72;75.65;;;;;;;18.94;73.17;101034.53;5014784;28;102233;-54
2022/09/22 05:17:09;;;;;;;75.68;71.78;;;;;;;18.96;73.56;101031.44;5012824;28;102328;-54
2022/09/22 05:19:36;;;;;;;74.63;70.88;;;;;;;18.96;73.80;101028.69;5014026;28;102731;-54
2022/09/22 05:22:02;;;;;;;77.95;74.05;;;;;;;18.96;73.42;101035.00;5005569;28;104032;-54
2022/09/22 05:24:31;;;;;;;82.10;77.90;;;;;;;18.98;73.55;101036.66;5013029;28;102324;-53
2022/09/22 05:26:58;;;;;;;63.20;59.95;;;;;;;18.99;73.37;101038.28;5013974;28;102502;-54
2022/09/22 05:29:24;;;;;;;57.90;54.90;;;;;;;18.99;73.55;101033.56;5011800;28;102623;-53
2022/09/22 05:31:51;;;;;;;70.72;67.13;;;;;;;18.99;73.36;101033.56;5013131;28;104233;-52
2022/09/22 05:34:17;;;;;;;65.38;62.00;;;;;;;19.00;73.20;101037.13;5001301;28;102810;-55
2022/09/22 05:36:44;;;;;;;69.50;65.90;;;;;;;19.00;73.17;101037.94;5013199;28;102268;-53
2022/09/22 05:39:10;;;;;;;70.00;66.47;;;;;;;19.02;73.22;101043.16;5015092;28;102290;-54
2022/09/22 05:41:38;;;;;;;72.18;68.50;;;;;;;19.00;73.45;101048.16;5014174;28;104803;-54
2022/09/22 05:44:04;;;;;;;68.68;65.13;;;;;;;18.99;73.62;101050.13;5006908;28;102184;-54
2022/09/22 05:46:31;;;;;;;73.38;69.72;;;;;;;19.00;73.54;101050.91;5011277;28;102240;-53
2022/09/22 05:48:58;;;;;;;70.88;67.18;;;;;;;18.99;73.01;101054.81;5015535;28;102159;-55
2022/09/22 05:51:25;;;;;;;67.07;63.60;;;;;;;19.00;73.04;101064.72;4999620;28;104858;-54
2022/09/22 05:53:51;;;;;;;64.00;60.72;;;;;;;18.99;73.12;101065.84;5011352;28;104154;-54
2022/09/22 05:56:18;;;;;;;61.78;58.63;;;;;;;18.99;72.86;101071.38;5013163;28;102056;-54
2022/09/22 05:58:47;;;;;;;64.75;61.45;;;;;;;18.99;72.80;101071.38;5014767;28;102238;-54
2022/09/22 06:01:15;;;;;;;64.03;60.75;;;;;;;18.98;73.07;101065.03;5012760;28;103524;-54
2022/09/22 06:03:42;;;;;;;64.18;60.92;;;;;;;18.99;72.88;101060.34;5005211;28;102175;-55
2022/09/22 06:06:08;;;;;;;64.30;61.03;;;;;;;18.98;72.63;101065.03;5013957;28;102409;-54
2022/09/22 06:08:35;;;;;;;62.60;59.40;;;;;;;18.96;72.71;101062.59;5017851;28;101986;-54
2022/09/22 06:11:01;;;;;;;60.97;57.88;;;;;;;18.98;72.52;101070.56;5015171;28;103921;-54
2022/09/22 06:13:29;;;;;;;60.00;56.92;;;;;;;18.97;72.77;101071.69;5015547;28;102437;-54
2022/09/22 06:15:59;;;;;;;66.68;63.35;;;;;;;18.98;72.33;101072.50;5016609;28;102260;-55
2022/09/22 06:18:29;;;;;;;71.78;68.13;;;;;;;18.96;72.37;101073.63;5013968;28;101999;-54
2022/09/22 06:20:56;;;;;;;67.35;63.85;;;;;;;18.97;72.33;101063.44;5013599;28;103928;-54
2022/09/22 06:23:25;;;;;;;61.40;58.15;;;;;;;18.96;72.28;101065.34;5014894;28;102807;-54
2022/09/22 06:25:56;;;;;;;66.67;63.27;;;;;;;18.97;72.30;101060.66;5009876;28;102731;-54
2022/09/22 06:28:24;;;;;;;52.20;49.47;;;;;;;18.97;72.40;101057.91;5018027;28;102556;-54
2022/09/22 06:30:50;;;;;;;60.20;57.15;;;;;;;18.96;72.50;101057.06;5010297;28;103998;-54
2022/09/22 06:33:19;;;;;;;66.47;63.15;;;;;;;18.96;72.46;101057.06;5012834;28;102801;-54
2022/09/22 06:35:45;;;;;;;59.43;56.40;;;;;;;18.98;72.11;101065.03;5013310;28;102699;-54
2022/09/22 06:38:14;;;;;;;65.15;61.70;;;;;;;19.00;72.45;101056.44;5016643;28;102956;-53
2022/09/22 06:40:41;;;;;;;47.78;45.30;;;;;;;19.00;72.32;101061.94;5016718;28;103975;-54
2022/09/22 06:43:13;;;;;;;67.45;64.05;;;;;;;19.00;72.44;101062.75;5017249;28;102094;-54
2022/09/22 06:45:43;;;;;;;65.65;62.17;;;;;;;19.01;72.01;101061.66;5016933;28;102303;-54
2022/09/22 06:48:10;;;;;;;65.53;62.17;;;;;;;19.03;72.74;101061.31;5017808;28;102355;-54
2022/09/22 06:50:39;;;;;;;63.33;60.05;;;;;;;19.03;72.05;101055.81;5011766;28;103921;-54
2022/09/22 06:53:12;;;;;;;69.15;65.60;;;;;;;19.02;72.08;101049.47;5004529;28;102265;-54
2022/09/22 06:55:41;;;;;;;68.20;64.80;;;;;;;19.04;72.25;101062.94;5017053;28;102285;-54
2022/09/22 06:58:12;;;;;;;66.65;63.20;;;;;;;19.04;72.12;101051.91;5017609;28;102317;-54
2022/09/22 07:00:40;;;;;;;65.55;62.20;;;;;;;19.04;71.86;101052.75;5013609;28;103855;-54
2022/09/22 07:03:14;;;;;;;69.15;65.53;;;;;;;19.06;72.32;101053.22;5013233;28;102109;-54
2022/09/22 07:05:52;;;;;;;68.20;64.72;;;;;;;19.06;71.75;101046.91;5012692;28;102404;-54
2022/09/22 07:08:19;;;;;;;64.80;61.47;;;;;;;19.07;72.11;101035.53;5000936;28;102551;-54
2022/09/22 07:10:51;;;;;;;67.80;64.30;;;;;;;19.08;71.99;101030.84;5016287;28;103855;-54
2022/09/22 07:13:17;;;;;;;65.55;62.22;;;;;;;19.08;71.94;101025.31;5013467;28;102435;-54
2022/09/22 07:15:44;;;;;;;67.78;64.28;;;;;;;19.08;71.69;101031.66;5015815;28;102316;-54
2022/09/22 07:18:11;;;;;;;67.95;64.40;;;;;;;19.10;71.88;101034.09;5017077;28;102174;-53
2022/09/22 07:20:37;;;;;;;67.38;64.00;;;;;;;19.11;72.17;101035.69;5012448;28;103967;-54
2022/09/22 07:23:10;;;;;;;67.88;64.43;;;;;;;19.12;71.73;101031.81;5013683;28;102346;-54
2022/09/22 07:25:38;;;;;;;55.78;52.97;;;;;;;19.13;72.16;101038.97;5012894;28;102170;-54
2022/09/22 07:28:05;;;;;;;59.03;56.00;;;;;;;19.14;72.17;101029.53;5014451;28;102273;-54
2022/09/22 07:30:35;;;;;;;47.08;44.55;;;;;;;19.15;72.31;101029.22;5010202;28;103941;-54
2022/09/22 07:33:01;;;;;;;69.57;66.05;;;;;;;19.15;72.10;101031.19;5004894;28;102382;-53
2022/09/22 07:35:28;;;;;;;71.82;68.22;;;;;;;19.17;72.08;101028.91;5012197;28;102377;-54
2022/09/22 07:38:02;;;;;;;69.28;65.72;;;;;;;19.18;72.27;101025.00;5015851;28;102525;-54
2022/09/22 07:40:30;;;;;;;69.22;65.72;;;;;;;19.20;72.10;101031.03;5012556;28;104158;-54
2022/09/22 07:42:56;;;;;;;70.93;67.30;;;;;;;19.20;72.22;101037.34;5015050;28;102293;-54
2022/09/22 07:45:23;;;;;;;67.88;64.38;;;;;;;19.23;72.37;101037.84;5009023;28;102551;-54
2022/09/22 07:50:34;;;;;;;65.22;61.88;;;;;;;19.21;72.32;101035.41;5012129;28;104267;-53
2022/09/22 07:53:02;;;;;;;61.63;58.40;;;;;;;19.24;72.41;101047.75;5015638;28;102262;-54
2022/09/22 07:55:33;;;;;;;69.65;66.15;;;;;;;19.24;72.24;101043.03;5016040;28;102013;-53
2022/09/22 07:57:59;;;;;;;64.13;60.88;;;;;;;19.24;71.93;101040.28;4996987;28;102445;-54
2022/09/22 08:00:31;;;;;;;73.50;69.75;;;;;;;19.25;72.03;101035.56;5012947;28;104768;-53
2022/09/22 08:02:58;;;;;;;66.43;63.08;;;;;;;19.25;72.08;101036.38;5015705;28;102236;-54
2022/09/22 08:05:26;;;;;;;70.38;66.72;;;;;;;19.24;71.94;101032.00;5007748;28;102024;-54
2022/09/22 08:07:57;;;;;;;70.00;66.50;;;;;;;19.26;71.73;101031.66;5011996;28;102468;-53
2022/09/22 08:10:25;;;;;;;58.03;55.05;;;;;;;19.27;71.72;101028.59;5014257;28;104043;-53
2022/09/22 08:12:56;;;;;;;66.55;63.10;;;;;;;19.27;71.64;101031.34;5015856;28;102340;-55
2022/09/22 08:15:24;;;;;;;74.30;70.57;;;;;;;19.28;71.91;101023.88;5014371;28;102170;-54
2022/09/22 08:17:56;;;;;;;72.47;68.83;;;;;;;19.28;71.58;101019.19;5015337;28;102273;-54
2022/09/22 08:20:24;;;;;;;68.97;65.53;;;;;;;19.30;71.38;101022.44;5008987;28;103929;-55
2022/09/22 08:22:51;;;;;;;72.45;68.82;;;;;;;19.31;71.52;101013.00;5014323;28;102548;-54
2022/09/22 08:25:18;;;;;;;40.80;38.75;;;;;;;19.31;71.59;101010.25;5011039;28;102658;-54
2022/09/22 08:27:44;;;;;;;73.13;69.40;;;;;;;19.30;71.56;101005.88;5003948;28;102588;-54
2022/09/22 08:30:14;;;;;;;76.50;72.72;;;;;;;19.28;71.54;101008.13;5008490;28;103979;-54
2022/09/22 08:32:40;;;;;;;79.57;75.60;;;;;;;19.27;71.53;101003.75;5004817;28;102415;-54
2022/09/22 08:35:08;;;;;;;74.32;70.57;;;;;;;19.28;71.50;101002.63;5001828;28;102602;-54
2022/09/22 08:37:36;;;;;;;68.20;64.77;;;;;;;19.30;71.23;101007.84;5012456;28;102291;-54
2022/09/22 08:40:14;;;;;;;67.72;64.30;;;;;;;19.29;71.16;100998.72;5011624;28;104057;-54
2022/09/22 08:42:43;;;;;;;66.63;63.17;;;;;;;19.29;70.96;100997.91;5011088;28;102759;-53
2022/09/22 08:45:23;;;;;;;65.18;61.90;;;;;;;19.31;70.78;101001.97;5009515;28;102546;-52
2022/09/22 08:53:34;;;;;;;54.65;51.85;;;;;;;19.30;71.01;100999.56;5009976;28;102205;-53
2022/09/22 08:56:07;;;;;;;59.95;56.90;;;;;;;19.27;71.28;100995.50;5011851;28;102441;-54
2022/09/22 08:58:45;;;;;;;64.65;61.38;;;;;;;19.27;70.95;101001.00;4995187;28;102571;-54
2022/09/22 09:01:33;;;;;;;64.27;61.00;;;;;;;19.25;71.20;100985.91;5010256;28;104356;-53
2022/09/22 09:04:15;;;;;;;62.90;59.70;;;;;;;19.24;70.85;100979.56;5011580;28;102736;-55
2022/09/22 09:06:51;;;;;;;62.50;59.33;;;;;;;19.24;70.55;100985.09;5011192;28;102744;-54
2022/09/22 09:09:46;;;;;;;59.58;56.60;;;;;;;19.24;70.76;100984.28;5012310;28;102332;-53
2022/09/22 09:12:29;;;;;;;60.85;57.80;;;;;;;19.24;70.65;100979.56;5011299;28;104181;-55
2022/09/22 09:15:13;;;;;;;60.72;57.63;;;;;;;19.24;70.71;100974.06;5008752;28;102204;-55
2022/09/22 09:17:46;;;;;;;59.45;56.45;;;;;;;19.24;70.64;100968.53;5002992;28;102074;-55
2022/09/22 09:20:17;;;;;;;58.33;55.40;;;;;;;19.24;70.66;100974.06;5010992;28;102598;-54
2022/09/22 09:22:49;;;;;;;63.63;60.42;;;;;;;19.24;70.69;100979.56;5011604;28;104065;-53
2022/09/22 09:25:21;;;;;;;60.30;57.30;;;;;;;19.23;70.83;100994.50;5009458;28;102690;-54
2022/09/22 09:27:52;;;;;;;66.47;63.20;;;;;;;19.23;70.57;101005.56;5011854;28;102453;-54
2022/09/22 09:30:19;;;;;;;59.33;56.33;;;;;;;19.24;70.54;101007.16;5011807;28;102184;-55
2022/09/22 09:32:51;;;;;;;62.78;59.63;;;;;;;19.23;70.60;101016.59;5010196;28;104113;-54
2022/09/22 09:35:23;;;;;;;64.40;61.13;;;;;;;19.22;70.61;101009.41;5010508;28;102340;-53
2022/09/22 09:37:52;;;;;;;64.53;61.25;;;;;;;19.23;70.54;101000.03;5010990;28;103211;-54
2022/09/22 09:40:19;;;;;;;;;;;;;;;19.21;70.47;101011.38;5014624;28;102231;-54
2022/09/22 09:42:54;;;;;;;53.70;50.92;;;;;;;19.22;70.60;100998.38;5014612;28;104136;-54
2022/09/22 09:45:26;;;;;;;56.08;53.22;;;;;;;19.21;70.30;100997.56;5009673;28;102539;-54
2022/09/22 09:48:10;;;;;;;59.97;57.00;;;;;;;19.20;70.45;101000.66;5014104;28;102529;-56
2022/09/22 09:50:38;;;;;;;57.67;54.75;;;;;;;19.19;70.12;101008.13;5011396;28;102649;-54
2022/09/22 09:53:05;;;;;;;56.70;53.83;;;;;;;19.18;70.32;100992.69;5014501;28;103917;-54
2022/09/22 09:55:34;;;;;;;59.53;56.42;;;;;;;19.18;70.26;100978.09;5002408;28;102289;-55
2022/09/22 09:58:02;;;;;;;54.88;52.03;;;;;;;19.18;70.00;100981.66;5012840;28;102412;-55
2022/09/22 10:00:31;;;;;;;56.35;53.53;;;;;;;19.17;70.11;100982.81;5014711;28;102584;-55
2022/09/22 10:03:23;;;;;;;54.70;51.95;;;;;;;19.17;69.89;100973.72;5014609;28;104112;-55
2022/09/22 10:05:59;;;;;;;54.47;51.78;;;;;;;19.17;69.73;100980.06;5013140;28;101956;-56
2022/09/22 10:08:28;;;;;;;55.03;52.25;;;;;;;19.14;69.70;100985.41;5012806;28;102495;-55
2022/09/22 10:10:58;;;;;;;55.00;52.22;;;;;;;19.14;69.93;100985.41;5017372;28;102384;-55
2022/09/22 10:13:33;;;;;;;51.28;48.70;;;;;;;19.13;69.80;100984.59;5011080;28;104045;-55
2022/09/22 10:16:19;;;;;;;58.97;55.97;;;;;;;19.13;69.76;100972.75;4997683;28;102516;-55
2022/09/22 10:18:48;;;;;;;56.80;53.90;;;;;;;19.12;70.07;100969.19;5007826;28;102461;-56
2022/09/22 10:21:15;;;;;;;;;;;;;;;19.13;69.86;100967.22;5014207;28;102658;-55
2022/09/22 10:23:43;;;;;;;48.13;45.67;;;;;;;19.12;70.19;100960.09;5014328;28;103990;-54
2022/09/22 10:26:16;;;;;;;50.43;47.87;;;;;;;19.13;70.20;100958.97;5014202;28;102529;-55
2022/09/22 10:28:46;;;;;;;53.38;50.67;;;;;;;19.11;69.91;100947.41;5013402;28;102391;-54
2022/09/22 10:31:19;;;;;;;53.78;51.08;;;;;;;19.11;69.81;100958.44;5011320;28;102257;-55
2022/09/22 10:33:56;;;;;;;60.08;57.05;;;;;;;19.12;70.09;100955.38;5014374;28;104359;-55
2022/09/22 11:13:28;;;;;;;46.08;43.67;;;;;;;19.06;69.32;100922.75;4969841;28;102763;-55
2022/09/22 11:16:15;;;;;;;46.83;44.42;;;;;;;19.05;69.47;100926.66;5010316;28;104100;-55
2022/09/22 11:18:54;;;;;;;45.97;43.53;;;;;;;19.04;68.96;100927.78;5012218;28;102185;-54
2022/09/22 11:21:35;;;;;;;48.90;46.47;;;;;;;19.03;68.77;100932.50;5014637;28;102411;-54
2022/09/22 11:24:18;;;;;;;49.97;47.33;;;;;;;19.02;68.40;100922.59;5009836;28;102368;-55
2022/09/22 11:26:48;;;;;;;44.17;41.97;;;;;;;19.01;68.37;100920.19;5011212;28;103969;-55
2022/09/22 11:29:49;;;;;;;45.70;43.35;;;;;;;19.01;68.28;100928.44;5011422;28;102699;-54
2022/09/22 11:32:30;;;;;;;42.72;40.53;;;;;;;19.01;68.01;100925.69;4986619;28;102583;-55
2022/09/22 11:35:16;;;;;;;46.35;43.95;;;;;;;19.00;68.32;100924.03;5008527;28;102450;-54
2022/09/22 11:37:53;;;;;;;44.78;42.58;;;;;;;18.99;68.20;100911.41;5013191;28;103881;-54
2022/09/22 11:40:52;;;;;;;46.55;44.25;;;;;;;18.99;68.18;100916.91;5014193;28;102230;-55
2022/09/22 11:43:38;;;;;;;41.13;39.05;;;;;;;18.99;68.02;100914.16;5012802;28;102717;-55
2022/09/22 11:46:12;;;;;;;44.67;42.40;;;;;;;18.99;68.10;100922.44;5008769;28;102483;-54
2022/09/22 11:48:52;;;;;;;44.17;41.88;;;;;;;19.00;68.07;100918.53;5007842;28;103930;-54
2022/09/22 11:51:53;;;;;;;44.38;42.15;;;;;;;18.99;68.35;100916.91;5009893;28;102062;-54
2022/09/22 11:54:32;;;;;;;41.65;39.53;;;;;;;18.97;68.53;100903.47;5011415;28;102800;-55
2022/09/22 11:57:02;;;;;;;42.45;40.35;;;;;;;18.96;68.03;100902.63;5011891;28;102380;-55
2022/09/22 11:59:37;;;;;;;44.60;42.38;;;;;;;18.99;68.13;100911.41;5001759;28;103901;-55
2022/09/22 12:02:15;;;;;;;41.28;39.20;;;;;;;18.96;68.37;100908.13;5010320;28;102571;-55
2022/09/22 12:04:48;;;;;;;44.92;42.63;;;;;;;18.98;68.23;100920.81;5011333;28;102335;-54